Terminal Aerodrome Forecast
Issued by NWS

Home | Current Version | Previous Version | Graphics & Text | Print | Product List | Glossary On
Versions: 1 2 3 4 5 6 7 8 9 10 11 12 13 14 15 16 17 18 19 20 21
539
FTUS43 KFGF 101613 AAA
TAFBJI
TAF AMD
KBJI 101613Z 1016/1112 32007KT P6SM OVC009
     FM110200 18004KT 1SM -SN OVC008
     FM110700 28005KT P6SM OVC008=

USA.gov is the U.S. government's official web portal to all federal, state and local government web resources and services.